createdAt,value
2018-01-10T00:00:16.297Z,1003.86
2018-01-10T00:01:16.306Z,1003.87
2018-01-10T00:02:16.302Z,1003.84
2018-01-10T00:03:16.308Z,1003.85
2018-01-10T00:04:16.308Z,1003.85
2018-01-10T00:05:16.314Z,1003.82
2018-01-10T00:06:16.313Z,1003.88
2018-01-10T00:07:16.319Z,1003.91
2018-01-10T00:08:16.317Z,1003.86
2018-01-10T00:09:16.324Z,1003.88
2018-01-10T00:10:16.325Z,1003.88
2018-01-10T00:11:16.329Z,1003.89
2018-01-10T00:12:16.330Z,1003.88
2018-01-10T00:13:16.337Z,1003.85
2018-01-10T00:14:16.336Z,1003.85
2018-01-10T00:15:16.341Z,1003.82
2018-01-10T00:16:16.344Z,1003.84
2018-01-10T00:17:16.341Z,1003.85
2018-01-10T00:18:16.347Z,1003.85
2018-01-10T00:19:16.352Z,1003.86
2018-01-10T00:20:16.356Z,1003.86
2018-01-10T00:21:16.357Z,1003.89
2018-01-10T00:22:16.356Z,1003.84
2018-01-10T00:23:16.363Z,1003.87
2018-01-10T00:24:16.365Z,1003.86
2018-01-10T00:25:16.367Z,1003.86
2018-01-10T00:26:16.369Z,1003.84
2018-01-10T00:27:16.374Z,1003.84
2018-01-10T00:28:16.379Z,1003.84
2018-01-10T00:29:16.380Z,1003.81
2018-01-10T00:30:16.395Z,1003.79
2018-01-10T00:31:16.385Z,1003.79
2018-01-10T00:32:16.386Z,1003.82
2018-01-10T00:33:16.392Z,1003.77
2018-01-10T00:34:16.395Z,1003.79
2018-01-10T00:35:16.394Z,1003.79
2018-01-10T00:36:16.400Z,1003.80
2018-01-10T00:37:16.405Z,1003.84
2018-01-10T00:38:16.409Z,1003.80
2018-01-10T00:39:16.407Z,1003.78
2018-01-10T00:40:16.410Z,1003.80
2018-01-10T00:41:16.416Z,1003.81
2018-01-10T00:42:16.418Z,1003.85
2018-01-10T00:43:16.420Z,1003.87
2018-01-10T00:44:16.418Z,1003.84
2018-01-10T00:45:16.431Z,1003.85
2018-01-10T00:46:16.434Z,1003.83
2018-01-10T00:47:16.433Z,1003.83
2018-01-10T00:48:16.437Z,1003.87
2018-01-10T00:49:16.440Z,1003.86
2018-01-10T00:50:16.445Z,1003.88
2018-01-10T00:51:16.442Z,1003.84
2018-01-10T00:52:16.450Z,1003.83
2018-01-10T00:53:16.454Z,1003.77
2018-01-10T00:54:16.455Z,1003.81
2018-01-10T00:55:16.454Z,1003.82
2018-01-10T00:56:16.463Z,1003.81
2018-01-10T00:57:16.462Z,1003.79
2018-01-10T00:58:16.464Z,1003.79
2018-01-10T00:59:16.468Z,1003.81
2018-01-10T01:00:16.471Z,1003.78
2018-01-10T01:01:16.470Z,1003.81
2018-01-10T01:02:16.476Z,1003.81
2018-01-10T01:03:16.478Z,1003.79
2018-01-10T01:04:16.502Z,1003.81
2018-01-10T01:05:16.484Z,1003.81
2018-01-10T01:06:16.484Z,1003.83
2018-01-10T01:07:16.491Z,1003.85
2018-01-10T01:08:16.494Z,1003.84
2018-01-10T01:09:16.502Z,1003.83
2018-01-10T01:10:16.496Z,1003.87
2018-01-10T01:11:16.505Z,1003.86
2018-01-10T01:12:16.507Z,1003.86
2018-01-10T01:13:16.506Z,1003.87
2018-01-10T01:14:16.516Z,1003.87
2018-01-10T01:15:16.514Z,1003.90
2018-01-10T01:16:16.529Z,1003.94
2018-01-10T01:17:16.526Z,1003.94
2018-01-10T01:18:16.526Z,1003.90
2018-01-10T01:19:16.525Z,1003.93
2018-01-10T01:20:16.532Z,1003.92
2018-01-10T01:21:16.532Z,1003.87
2018-01-10T01:22:16.538Z,1003.92
2018-01-10T01:23:16.544Z,1003.91
2018-01-10T01:24:16.544Z,1003.90
2018-01-10T01:25:16.543Z,1003.90
2018-01-10T01:26:16.574Z,1003.92
2018-01-10T01:27:16.557Z,1003.93
2018-01-10T01:28:16.553Z,1003.95
2018-01-10T01:29:16.560Z,1003.94
2018-01-10T01:30:16.559Z,1003.92
2018-01-10T01:31:16.569Z,1003.91
2018-01-10T01:32:16.567Z,1003.92
2018-01-10T01:33:16.572Z,1003.90
2018-01-10T01:34:16.571Z,1003.89
2018-01-10T01:35:16.577Z,1003.90
2018-01-10T01:36:16.578Z,1003.90
2018-01-10T01:37:16.590Z,1003.89
2018-01-10T01:38:16.584Z,1003.88
2018-01-10T01:39:16.585Z,1003.94
2018-01-10T01:40:16.591Z,1003.90
2018-01-10T01:41:16.596Z,1003.93
2018-01-10T01:42:16.600Z,1003.91
2018-01-10T01:43:16.601Z,1003.92
2018-01-10T01:44:16.604Z,1003.90
2018-01-10T01:45:16.602Z,1003.95
2018-01-10T01:46:16.607Z,1003.96
2018-01-10T01:47:16.618Z,1003.95
2018-01-10T01:48:16.619Z,1003.95
2018-01-10T01:49:16.620Z,1003.97
2018-01-10T01:50:16.623Z,1003.94
2018-01-10T01:51:16.627Z,1003.97
2018-01-10T01:52:16.629Z,1003.96
2018-01-10T01:53:16.636Z,1003.92
2018-01-10T01:54:16.640Z,1003.93
2018-01-10T01:55:16.639Z,1003.90
2018-01-10T01:56:16.642Z,1003.92
2018-01-10T01:57:16.643Z,1003.89
2018-01-10T01:58:16.647Z,1003.90
2018-01-10T01:59:16.650Z,1003.89
2018-01-10T02:00:16.660Z,1003.94
2018-01-10T02:01:16.658Z,1003.90
2018-01-10T02:02:16.666Z,1003.88
2018-01-10T02:03:16.664Z,1003.89
2018-01-10T02:04:16.672Z,1003.86
2018-01-10T02:05:16.670Z,1003.89
2018-01-10T02:06:16.675Z,1003.88
2018-01-10T02:07:16.684Z,1003.86
2018-01-10T02:08:16.683Z,1003.84
2018-01-10T02:09:17.585Z,1003.84
2018-01-10T02:10:16.691Z,1003.82
2018-01-10T02:11:16.692Z,1003.82
2018-01-10T02:12:16.697Z,1003.80
2018-01-10T02:13:16.700Z,1003.79
2018-01-10T02:14:16.702Z,1003.79
2018-01-10T02:15:16.703Z,1003.84
2018-01-10T02:16:16.709Z,1003.79
2018-01-10T02:17:16.713Z,1003.79
2018-01-10T02:18:16.714Z,1003.81
2018-01-10T02:19:16.721Z,1003.80
2018-01-10T02:20:16.721Z,1003.77
2018-01-10T02:21:16.728Z,1003.79
2018-01-10T02:22:16.725Z,1003.78
2018-01-10T02:23:16.734Z,1003.74
2018-01-10T02:24:16.736Z,1003.73
2018-01-10T02:25:16.743Z,1003.75
2018-01-10T02:26:16.744Z,1003.73
2018-01-10T02:27:16.741Z,1003.72
2018-01-10T02:28:16.747Z,1003.74
2018-01-10T02:29:16.753Z,1003.75
2018-01-10T02:30:16.751Z,1003.73
2018-01-10T02:31:16.754Z,1003.76
2018-01-10T02:32:16.758Z,1003.75
2018-01-10T02:33:16.764Z,1003.76
2018-01-10T02:34:16.769Z,1003.73
2018-01-10T02:35:16.768Z,1003.69
2018-01-10T02:36:16.770Z,1003.71
2018-01-10T02:37:16.778Z,1003.69
2018-01-10T02:38:16.778Z,1003.68
2018-01-10T02:39:16.786Z,1003.68
2018-01-10T02:40:16.785Z,1003.67
2018-01-10T02:41:16.786Z,1003.67
2018-01-10T02:42:16.790Z,1003.65
2018-01-10T02:43:16.799Z,1003.70
2018-01-10T02:44:16.800Z,1003.68
2018-01-10T02:45:16.800Z,1003.67
2018-01-10T02:46:16.839Z,1003.67
2018-01-10T02:47:16.809Z,1003.65
2018-01-10T02:48:16.812Z,1003.63
2018-01-10T02:49:16.814Z,1003.61
2018-01-10T02:50:16.816Z,1003.60
2018-01-10T02:51:16.823Z,1003.57
2018-01-10T02:52:16.828Z,1003.58
2018-01-10T02:53:16.828Z,1003.59
2018-01-10T02:54:16.828Z,1003.61
2018-01-10T02:55:16.834Z,1003.59
2018-01-10T02:56:16.834Z,1003.59
2018-01-10T02:57:16.841Z,1003.61
2018-01-10T02:58:16.845Z,1003.61
2018-01-10T02:59:16.845Z,1003.60
2018-01-10T03:00:16.852Z,1003.60
2018-01-10T03:01:16.851Z,1003.61
2018-01-10T03:02:16.861Z,1003.65
2018-01-10T03:03:16.858Z,1003.59
2018-01-10T03:04:16.863Z,1003.60
2018-01-10T03:05:16.874Z,1003.58
2018-01-10T03:06:16.874Z,1003.58
2018-01-10T03:07:16.869Z,1003.61
2018-01-10T03:08:16.880Z,1003.62
2018-01-10T03:09:16.881Z,1003.61
2018-01-10T03:10:16.882Z,1003.62
2018-01-10T03:11:16.882Z,1003.60
2018-01-10T03:12:16.887Z,1003.63
2018-01-10T03:13:16.894Z,1003.63
2018-01-10T03:14:16.890Z,1003.63
2018-01-10T03:15:16.899Z,1003.64
2018-01-10T03:16:16.896Z,1003.64
2018-01-10T03:17:16.905Z,1003.66
2018-01-10T03:18:16.906Z,1003.67
2018-01-10T03:19:16.910Z,1003.65
2018-01-10T03:20:16.921Z,1003.62
2018-01-10T03:21:16.913Z,1003.62
2018-01-10T03:22:16.921Z,1003.62
2018-01-10T03:23:16.923Z,1003.63
2018-01-10T03:24:16.926Z,1003.60
2018-01-10T03:25:16.925Z,1003.62
2018-01-10T03:26:16.932Z,1003.60
2018-01-10T03:27:16.931Z,1003.61
2018-01-10T03:28:16.937Z,1003.64
2018-01-10T03:29:16.942Z,1003.61
2018-01-10T03:30:16.948Z,1003.64
2018-01-10T03:31:16.945Z,1003.63
2018-01-10T03:32:16.947Z,1003.60
2018-01-10T03:33:16.956Z,1003.62
2018-01-10T03:34:16.955Z,1003.62
2018-01-10T03:35:16.955Z,1003.61
2018-01-10T03:36:18.377Z,1003.59
2018-01-10T03:37:18.409Z,1003.58
2018-01-10T03:38:18.348Z,1003.57
2018-01-10T03:39:16.975Z,1003.56
2018-01-10T03:40:16.974Z,1003.56
2018-01-10T03:41:16.978Z,1003.61
2018-01-10T03:42:16.983Z,1003.57
2018-01-10T03:43:16.986Z,1003.59
2018-01-10T03:44:16.982Z,1003.57
2018-01-10T03:45:16.989Z,1003.54
2018-01-10T03:46:16.989Z,1003.54
2018-01-10T03:47:17.050Z,1003.54
2018-01-10T03:48:17.002Z,1003.54
2018-01-10T03:49:17.002Z,1003.58
2018-01-10T03:50:17.006Z,1003.54
2018-01-10T03:51:17.010Z,1003.57
2018-01-10T03:52:17.012Z,1003.56
2018-01-10T03:53:17.018Z,1003.55
2018-01-10T03:54:17.020Z,1003.60
2018-01-10T03:55:17.019Z,1003.58
2018-01-10T03:56:17.018Z,1003.58
2018-01-10T03:57:17.031Z,1003.56
2018-01-10T03:58:17.030Z,1003.59
2018-01-10T03:59:17.031Z,1003.57
2018-01-10T04:00:17.039Z,1003.56
2018-01-10T04:01:17.038Z,1003.52
2018-01-10T04:02:17.041Z,1003.54
2018-01-10T04:03:17.044Z,1003.54
2018-01-10T04:04:17.053Z,1003.57
2018-01-10T04:05:17.049Z,1003.52
2018-01-10T04:06:17.053Z,1003.49
2018-01-10T04:07:17.059Z,1003.50
2018-01-10T04:08:17.060Z,1003.49
2018-01-10T04:09:17.065Z,1003.50
2018-01-10T04:10:17.064Z,1003.49
2018-01-10T04:11:17.072Z,1003.49
2018-01-10T04:12:17.074Z,1003.49
2018-01-10T04:14:17.080Z,1003.45
2018-01-10T04:15:17.079Z,1003.47
2018-01-10T04:16:17.084Z,1003.44
2018-01-10T04:17:17.093Z,1003.43
2018-01-10T04:18:17.092Z,1003.51
2018-01-10T04:19:17.092Z,1003.48
2018-01-10T04:20:17.094Z,1003.50
2018-01-10T04:21:17.102Z,1003.47
2018-01-10T04:22:17.103Z,1003.49
2018-01-10T04:23:17.105Z,1003.47
2018-01-10T04:26:17.113Z,1003.50
2018-01-10T04:27:17.122Z,1003.49
2018-01-10T04:28:17.121Z,1003.47
2018-01-10T04:29:17.127Z,1003.45
2018-01-10T04:30:17.130Z,1003.45
2018-01-10T04:31:17.133Z,1003.47
2018-01-10T04:32:17.138Z,1003.46
2018-01-10T04:33:17.136Z,1003.44
2018-01-10T04:34:17.144Z,1003.46
2018-01-10T04:35:17.142Z,1003.43
2018-01-10T04:36:17.149Z,1003.40
2018-01-10T04:37:17.153Z,1003.39
2018-01-10T04:38:17.157Z,1003.38
2018-01-10T04:39:17.156Z,1003.36
2018-01-10T04:40:17.158Z,1003.35
2018-01-10T04:41:17.167Z,1003.37
2018-01-10T04:42:17.164Z,1003.34
2018-01-10T04:43:17.167Z,1003.36
2018-01-10T04:44:17.174Z,1003.40
2018-01-10T04:45:17.175Z,1003.35
2018-01-10T04:46:17.199Z,1003.37
2018-01-10T04:47:17.186Z,1003.40
2018-01-10T04:48:17.180Z,1003.38
2018-01-10T04:49:17.189Z,1003.40
2018-01-10T04:50:17.195Z,1003.38
2018-01-10T04:51:17.197Z,1003.42
2018-01-10T04:52:17.196Z,1003.38
2018-01-10T04:53:17.203Z,1003.41
2018-01-10T04:54:17.201Z,1003.42
2018-01-10T04:55:17.211Z,1003.37
2018-01-10T04:56:17.207Z,1003.42
2018-01-10T04:57:17.213Z,1003.41
2018-01-10T04:58:17.216Z,1003.39
2018-01-10T04:59:17.221Z,1003.39
2018-01-10T05:00:17.225Z,1003.39
2018-01-10T05:01:17.225Z,1003.41
2018-01-10T05:02:17.231Z,1003.39
2018-01-10T05:03:17.231Z,1003.40
2018-01-10T05:04:17.234Z,1003.37
2018-01-10T05:05:17.240Z,1003.36
2018-01-10T05:06:17.245Z,1003.36
2018-01-10T05:07:17.242Z,1003.37
2018-01-10T05:08:17.246Z,1003.35
2018-01-10T05:09:17.252Z,1003.40
2018-01-10T05:10:17.255Z,1003.39
2018-01-10T05:11:17.254Z,1003.38
2018-01-10T05:12:17.260Z,1003.37
2018-01-10T05:13:18.941Z,1003.37
2018-01-10T05:14:17.264Z,1003.33
2018-01-10T05:15:17.270Z,1003.36
2018-01-10T05:16:17.274Z,1003.33
2018-01-10T05:17:17.277Z,1003.36
2018-01-10T05:18:17.290Z,1003.34
2018-01-10T05:19:17.285Z,1003.35
2018-01-10T05:20:17.289Z,1003.35
2018-01-10T05:21:17.288Z,1003.34
2018-01-10T05:22:17.296Z,1003.35
2018-01-10T05:23:17.294Z,1003.35
2018-01-10T05:24:17.301Z,1003.39
2018-01-10T05:25:17.308Z,1003.37
2018-01-10T05:26:17.306Z,1003.36
2018-01-10T05:27:17.309Z,1003.36
2018-01-10T05:28:17.316Z,1003.37
2018-01-10T05:29:17.318Z,1003.40
2018-01-10T05:30:17.314Z,1003.43
2018-01-10T05:31:17.326Z,1003.41
2018-01-10T05:32:17.323Z,1003.42
2018-01-10T05:33:17.329Z,1003.36
2018-01-10T05:34:17.334Z,1003.38
2018-01-10T05:35:17.336Z,1003.37
2018-01-10T05:36:17.341Z,1003.33
2018-01-10T05:37:17.377Z,1003.34
2018-01-10T05:38:17.343Z,1003.34
2018-01-10T05:39:17.351Z,1003.34
2018-01-10T05:40:17.350Z,1003.35
2018-01-10T05:41:17.356Z,1003.36
2018-01-10T05:42:17.354Z,1003.37
2018-01-10T05:43:17.363Z,1003.37
2018-01-10T05:44:17.362Z,1003.37
2018-01-10T05:45:17.367Z,1003.36
2018-01-10T05:46:17.373Z,1003.33
2018-01-10T05:47:17.374Z,1003.37
2018-01-10T05:48:17.382Z,1003.36
2018-01-10T05:49:17.380Z,1003.37
2018-01-10T05:50:17.381Z,1003.37
2018-01-10T05:51:17.387Z,1003.34
2018-01-10T05:52:17.391Z,1003.34
2018-01-10T05:53:17.398Z,1003.33
2018-01-10T05:54:17.399Z,1003.32
2018-01-10T05:55:17.402Z,1003.35
2018-01-10T05:56:17.405Z,1003.31
2018-01-10T05:57:17.410Z,1003.29
2018-01-10T05:58:17.425Z,1003.25
2018-01-10T05:59:17.414Z,1003.27
2018-01-10T06:00:17.417Z,1003.28
2018-01-10T06:01:17.420Z,1003.29
2018-01-10T06:02:17.423Z,1003.29
2018-01-10T06:03:17.431Z,1003.30
2018-01-10T06:04:17.432Z,1003.30
2018-01-10T06:05:17.436Z,1003.29
2018-01-10T06:06:17.443Z,1003.30
2018-01-10T06:07:17.443Z,1003.26
2018-01-10T06:08:17.447Z,1003.29
2018-01-10T06:09:17.448Z,1003.33
2018-01-10T06:10:17.452Z,1003.33
2018-01-10T06:11:17.456Z,1003.28
2018-01-10T06:12:17.458Z,1003.37
2018-01-10T06:13:17.460Z,1003.36
2018-01-10T06:14:17.464Z,1003.34
2018-01-10T06:15:17.467Z,1003.36
2018-01-10T06:16:17.470Z,1003.36
2018-01-10T06:17:18.149Z,1003.40
2018-01-10T06:18:17.480Z,1003.39
2018-01-10T06:19:17.480Z,1003.40
2018-01-10T06:20:17.491Z,1003.41
2018-01-10T06:21:17.490Z,1003.41
2018-01-10T06:22:17.492Z,1003.40
2018-01-10T06:23:17.492Z,1003.38
2018-01-10T06:24:17.496Z,1003.42
2018-01-10T06:25:17.503Z,1003.39
2018-01-10T06:26:17.510Z,1003.37
2018-01-10T06:27:17.507Z,1003.40
2018-01-10T06:28:17.514Z,1003.35
2018-01-10T06:29:17.519Z,1003.39
2018-01-10T06:30:17.521Z,1003.38
2018-01-10T06:31:17.520Z,1003.38
2018-01-10T06:32:17.524Z,1003.39
2018-01-10T06:33:17.531Z,1003.39
2018-01-10T06:34:17.530Z,1003.39
2018-01-10T06:35:17.538Z,1003.39
2018-01-10T06:36:17.538Z,1003.39
2018-01-10T06:37:17.547Z,1003.42
2018-01-10T06:38:17.544Z,1003.42
2018-01-10T06:39:17.553Z,1003.42
2018-01-10T06:40:17.552Z,1003.41
2018-01-10T06:41:17.564Z,1003.46
2018-01-10T06:42:17.559Z,1003.44
2018-01-10T06:43:17.564Z,1003.45
2018-01-10T06:44:17.566Z,1003.48
2018-01-10T06:45:17.572Z,1003.48
2018-01-10T06:46:18.153Z,1003.52
2018-01-10T06:47:17.580Z,1003.46
2018-01-10T06:48:17.587Z,1003.51
2018-01-10T06:49:17.583Z,1003.48
2018-01-10T06:50:17.587Z,1003.52
2018-01-10T06:51:17.588Z,1003.48
2018-01-10T06:52:17.596Z,1003.46
2018-01-10T06:53:17.597Z,1003.46
2018-01-10T06:54:17.602Z,1003.50
2018-01-10T06:55:17.603Z,1003.47
2018-01-10T06:56:17.610Z,1003.46
2018-01-10T06:57:17.611Z,1003.46
2018-01-10T06:58:17.615Z,1003.47
2018-01-10T06:59:17.620Z,1003.48
2018-01-10T07:00:17.622Z,1003.45
2018-01-10T07:01:17.624Z,1003.43
2018-01-10T07:02:17.630Z,1003.45
2018-01-10T07:03:17.641Z,1003.47
2018-01-10T07:04:17.660Z,1003.48
2018-01-10T07:05:17.641Z,1003.44
2018-01-10T07:06:17.643Z,1003.49
2018-01-10T07:07:17.643Z,1003.51
2018-01-10T07:08:17.648Z,1003.51
2018-01-10T07:09:17.660Z,1003.52
2018-01-10T07:10:17.658Z,1003.54
2018-01-10T07:11:17.657Z,1003.56
2018-01-10T07:12:17.665Z,1003.54
2018-01-10T07:13:17.678Z,1003.57
2018-01-10T07:14:17.672Z,1003.54
2018-01-10T07:15:17.673Z,1003.54
2018-01-10T07:16:17.678Z,1003.52
2018-01-10T07:17:17.681Z,1003.54
2018-01-10T07:18:17.685Z,1003.52
2018-01-10T07:19:17.686Z,1003.55
2018-01-10T07:20:17.689Z,1003.56
2018-01-10T07:21:17.697Z,1003.54
2018-01-10T07:22:17.699Z,1003.52
2018-01-10T07:23:17.698Z,1003.52
2018-01-10T07:24:17.706Z,1003.55
2018-01-10T07:25:17.712Z,1003.54
2018-01-10T07:26:17.716Z,1003.57
2018-01-10T07:27:17.713Z,1003.57
2018-01-10T07:28:17.717Z,1003.56
2018-01-10T07:29:17.723Z,1003.55
2018-01-10T07:30:17.725Z,1003.57
2018-01-10T07:31:17.729Z,1003.54
2018-01-10T07:32:17.731Z,1003.56
2018-01-10T07:33:17.739Z,1003.55
2018-01-10T07:34:17.739Z,1003.52
2018-01-10T07:35:18.193Z,1003.57
2018-01-10T07:36:17.744Z,1003.61
2018-01-10T07:37:17.756Z,1003.57
2018-01-10T07:38:17.753Z,1003.57
2018-01-10T07:39:17.761Z,1003.58
2018-01-10T07:40:17.756Z,1003.56
2018-01-10T07:41:17.767Z,1003.60
2018-01-10T07:42:17.764Z,1003.57
2018-01-10T07:43:17.769Z,1003.61
2018-01-10T07:44:17.775Z,1003.61
2018-01-10T07:45:17.774Z,1003.60
2018-01-10T07:46:17.780Z,1003.59
2018-01-10T07:47:17.780Z,1003.60
2018-01-10T07:48:17.791Z,1003.64
2018-01-10T07:49:17.790Z,1003.60
2018-01-10T07:50:17.794Z,1003.60
2018-01-10T07:51:17.793Z,1003.64
2018-01-10T07:52:17.803Z,1003.66
2018-01-10T07:53:17.798Z,1003.65
2018-01-10T07:54:17.804Z,1003.64
2018-01-10T07:55:17.808Z,1003.62
2018-01-10T07:56:17.816Z,1003.62
2018-01-10T07:57:17.814Z,1003.64
2018-01-10T07:58:17.826Z,1003.63
2018-01-10T07:59:17.820Z,1003.64
2018-01-10T08:00:17.824Z,1003.66
2018-01-10T08:01:17.832Z,1003.68
2018-01-10T08:02:17.832Z,1003.70
2018-01-10T08:03:17.832Z,1003.72
2018-01-10T08:04:17.838Z,1003.74
2018-01-10T08:05:17.842Z,1003.67
2018-01-10T08:06:17.849Z,1003.73
2018-01-10T08:07:17.846Z,1003.72
2018-01-10T08:08:17.850Z,1003.71
2018-01-10T08:09:17.857Z,1003.74
2018-01-10T08:10:17.860Z,1003.75
2018-01-10T08:11:17.862Z,1003.77
2018-01-10T08:12:17.864Z,1003.75
2018-01-10T08:13:17.873Z,1003.81
2018-01-10T08:14:17.874Z,1003.78
2018-01-10T08:15:17.873Z,1003.79
2018-01-10T08:16:17.883Z,1003.79
2018-01-10T08:17:17.880Z,1003.78
2018-01-10T08:18:17.888Z,1003.75
2018-01-10T08:19:17.893Z,1003.74
2018-01-10T08:20:17.894Z,1003.79
2018-01-10T08:21:17.896Z,1003.76
2018-01-10T08:22:17.893Z,1003.82
2018-01-10T08:23:17.907Z,1003.79
2018-01-10T08:24:17.907Z,1003.79
2018-01-10T08:25:17.952Z,1003.81
2018-01-10T08:26:17.911Z,1003.84
2018-01-10T08:27:17.918Z,1003.82
2018-01-10T08:28:17.925Z,1003.82
2018-01-10T08:29:17.924Z,1003.84
2018-01-10T08:30:17.929Z,1003.82
2018-01-10T08:31:17.937Z,1003.82
2018-01-10T08:32:17.936Z,1003.80
2018-01-10T08:33:17.937Z,1003.80
2018-01-10T08:34:17.943Z,1003.83
2018-01-10T08:35:17.943Z,1003.83
2018-01-10T08:36:17.951Z,1003.85
2018-01-10T08:37:17.953Z,1003.84
2018-01-10T08:38:17.960Z,1003.85
2018-01-10T08:39:17.958Z,1003.85
2018-01-10T08:40:17.961Z,1003.81
2018-01-10T08:41:17.965Z,1003.86
2018-01-10T08:42:17.971Z,1003.86
2018-01-10T08:43:17.972Z,1003.89
2018-01-10T08:44:17.977Z,1003.88
2018-01-10T08:45:17.979Z,1003.87
2018-01-10T08:46:17.982Z,1003.87
2018-01-10T08:47:17.986Z,1003.89
2018-01-10T08:48:17.990Z,1003.86
2018-01-10T08:49:17.998Z,1003.87
2018-01-10T08:50:17.997Z,1003.89
2018-01-10T08:51:18.005Z,1003.90
2018-01-10T08:52:18.006Z,1003.89
2018-01-10T08:53:18.012Z,1003.84
2018-01-10T08:54:18.013Z,1003.90
2018-01-10T08:55:18.023Z,1003.90
2018-01-10T08:56:18.027Z,1003.90
2018-01-10T08:57:18.033Z,1003.89
2018-01-10T08:58:18.029Z,1003.91
2018-01-10T08:59:18.036Z,1003.96
2018-01-10T09:00:18.036Z,1003.97
2018-01-10T09:01:18.045Z,1003.98
2018-01-10T09:02:18.049Z,1003.96
2018-01-10T09:03:18.050Z,1003.98
2018-01-10T09:04:18.057Z,1003.96
2018-01-10T09:05:18.057Z,1003.98
2018-01-10T09:06:18.060Z,1003.95
2018-01-10T09:07:18.073Z,1003.94
2018-01-10T09:08:18.072Z,1003.93
2018-01-10T09:09:18.072Z,1003.96
2018-01-10T09:10:18.079Z,1003.97
2018-01-10T09:11:18.084Z,1003.98
2018-01-10T09:12:18.086Z,1004.04
2018-01-10T09:13:18.094Z,1003.99
2018-01-10T09:14:18.100Z,1004.00
2018-01-10T09:15:18.099Z,1004.05
2018-01-10T09:16:18.105Z,1003.99
2018-01-10T09:17:18.106Z,1003.94
2018-01-10T09:18:18.112Z,1004.00
2018-01-10T09:19:18.113Z,1003.96
2018-01-10T09:20:18.123Z,1003.98
2018-01-10T09:21:18.122Z,1003.98
2018-01-10T09:22:18.125Z,1004.03
2018-01-10T09:23:18.143Z,1003.97
2018-01-10T09:24:18.141Z,1003.98
2018-01-10T09:25:18.139Z,1003.94
2018-01-10T09:26:18.143Z,1004.01
2018-01-10T09:27:18.148Z,1003.96
2018-01-10T09:28:18.153Z,1004.00
2018-01-10T09:29:18.156Z,1003.97
2018-01-10T09:30:18.160Z,1003.94
2018-01-10T09:31:18.163Z,1004.02
2018-01-10T09:32:18.172Z,1003.96
2018-01-10T09:33:18.172Z,1003.96
2018-01-10T09:34:18.176Z,1003.97
2018-01-10T09:35:18.179Z,1003.97
2018-01-10T09:36:18.187Z,1003.99
2018-01-10T09:37:18.187Z,1003.97
2018-01-10T09:38:18.198Z,1003.94
2018-01-10T09:39:18.196Z,1003.97
2018-01-10T09:40:18.202Z,1003.97
2018-01-10T09:41:18.202Z,1003.98
2018-01-10T09:42:18.212Z,1004.01
2018-01-10T09:43:18.212Z,1004.00
2018-01-10T09:44:18.218Z,1004.02
2018-01-10T09:45:18.222Z,1003.99
2018-01-10T09:46:18.225Z,1004.01
2018-01-10T09:47:18.232Z,1004.02
2018-01-10T09:48:18.231Z,1004.00
2018-01-10T09:49:18.245Z,1004.00
2018-01-10T09:50:18.243Z,1004.07
2018-01-10T09:51:18.250Z,1004.02
2018-01-10T09:52:18.249Z,1003.94
2018-01-10T09:53:18.256Z,1003.99
2018-01-10T09:54:18.257Z,1003.95
2018-01-10T09:55:18.268Z,1003.95
2018-01-10T09:56:18.264Z,1003.95
2018-01-10T09:57:18.274Z,1003.93
2018-01-10T09:58:18.273Z,1003.92
2018-01-10T09:59:18.282Z,1003.90
2018-01-10T10:00:18.281Z,1003.89
2018-01-10T10:01:18.287Z,1003.94
2018-01-10T10:02:18.291Z,1003.92
2018-01-10T10:03:18.298Z,1003.86
2018-01-10T10:04:18.308Z,1003.91
2018-01-10T10:05:18.300Z,1003.90
2018-01-10T10:06:18.309Z,1003.89
2018-01-10T10:07:18.308Z,1003.91
2018-01-10T10:08:18.317Z,1003.88
2018-01-10T10:09:19.205Z,1003.83
2018-01-10T10:10:18.322Z,1003.87
2018-01-10T10:11:18.329Z,1003.86
2018-01-10T10:12:18.333Z,1003.83
2018-01-10T10:13:18.333Z,1003.83
2018-01-10T10:14:18.336Z,1003.83
2018-01-10T10:15:18.348Z,1003.76
2018-01-10T10:16:18.349Z,1003.77
2018-01-10T10:17:18.355Z,1003.74
2018-01-10T10:18:18.353Z,1003.73
2018-01-10T10:19:18.358Z,1003.72
2018-01-10T10:20:18.362Z,1003.67
2018-01-10T10:21:18.371Z,1003.68
2018-01-10T10:22:18.375Z,1003.65
2018-01-10T10:23:18.383Z,1003.67
2018-01-10T10:24:18.380Z,1003.67
2018-01-10T10:25:18.386Z,1003.68
2018-01-10T10:26:18.389Z,1003.69
2018-01-10T10:27:18.393Z,1003.68
2018-01-10T10:28:18.395Z,1003.67
2018-01-10T10:29:18.404Z,1003.63
2018-01-10T10:30:18.408Z,1003.66
2018-01-10T10:31:18.409Z,1003.67
2018-01-10T10:32:18.413Z,1003.63
2018-01-10T10:33:18.420Z,1003.67
2018-01-10T10:34:18.423Z,1003.66
2018-01-10T10:35:18.425Z,1003.58
2018-01-10T10:36:18.430Z,1003.65
2018-01-10T10:37:18.435Z,1003.62
2018-01-10T10:38:18.442Z,1003.61
2018-01-10T10:39:18.443Z,1003.62
2018-01-10T10:40:18.449Z,1003.61
2018-01-10T10:41:18.451Z,1003.58
2018-01-10T10:42:18.457Z,1003.60
2018-01-10T10:43:18.458Z,1003.52
2018-01-10T10:44:18.468Z,1003.56
2018-01-10T10:45:18.467Z,1003.59
2018-01-10T10:46:18.475Z,1003.58
2018-01-10T10:47:18.477Z,1003.51
2018-01-10T10:48:18.484Z,1003.53
2018-01-10T10:49:18.490Z,1003.55
2018-01-10T10:50:18.496Z,1003.51
2018-01-10T10:51:18.495Z,1003.47
2018-01-10T10:52:18.501Z,1003.49
2018-01-10T10:53:18.504Z,1003.50
2018-01-10T10:54:18.513Z,1003.55
2018-01-10T10:55:18.512Z,1003.53
2018-01-10T10:56:18.516Z,1003.54
2018-01-10T10:57:18.534Z,1003.50
2018-01-10T10:58:18.526Z,1003.49
2018-01-10T10:59:18.534Z,1003.50
2018-01-10T11:00:18.536Z,1003.47
2018-01-10T11:01:18.544Z,1003.46
2018-01-10T11:02:18.543Z,1003.46
2018-01-10T11:03:18.551Z,1003.47
2018-01-10T11:04:18.553Z,1003.48
2018-01-10T11:05:19.223Z,1003.47
2018-01-10T11:06:18.562Z,1003.47
2018-01-10T11:07:18.570Z,1003.44
2018-01-10T11:08:18.570Z,1003.39
2018-01-10T11:09:18.577Z,1003.44
2018-01-10T11:10:18.579Z,1003.43
2018-01-10T11:11:18.586Z,1003.39
2018-01-10T11:12:18.589Z,1003.37
2018-01-10T11:13:18.603Z,1003.37
2018-01-10T11:14:18.597Z,1003.41
2018-01-10T11:15:18.600Z,1003.37
2018-01-10T11:16:18.605Z,1003.33
2018-01-10T11:17:18.616Z,1003.37
2018-01-10T11:18:18.621Z,1003.33
2018-01-10T11:19:18.619Z,1003.36
2018-01-10T11:20:18.626Z,1003.33
2018-01-10T11:21:18.631Z,1003.30
2018-01-10T11:22:18.635Z,1003.32
2018-01-10T11:23:18.637Z,1003.32
2018-01-10T11:24:18.641Z,1003.32
2018-01-10T11:25:18.648Z,1003.31
2018-01-10T11:26:18.658Z,1003.29
2018-01-10T11:27:18.652Z,1003.23
2018-01-10T11:28:18.660Z,1003.26
2018-01-10T11:29:18.666Z,1003.26
2018-01-10T11:30:18.670Z,1003.24
2018-01-10T11:31:18.672Z,1003.22
2018-01-10T11:32:18.678Z,1003.20
2018-01-10T11:33:18.680Z,1003.21
2018-01-10T11:34:18.691Z,1003.21
2018-01-10T11:35:18.690Z,1003.19
2018-01-10T11:36:18.696Z,1003.14
2018-01-10T11:37:18.699Z,1003.16
2018-01-10T11:38:18.707Z,1003.13
2018-01-10T11:39:18.708Z,1003.07
2018-01-10T11:40:18.717Z,1003.09
2018-01-10T11:41:18.718Z,1003.05
2018-01-10T11:42:18.725Z,1003.00
2018-01-10T11:43:18.730Z,1003.02
2018-01-10T11:44:18.737Z,1003.02
2018-01-10T11:45:18.739Z,1003.00
2018-01-10T11:46:18.744Z,1003.01
2018-01-10T11:47:18.745Z,1002.99
2018-01-10T11:48:18.753Z,1003.00
2018-01-10T11:49:18.756Z,1003.04
2018-01-10T11:50:18.766Z,1003.03
2018-01-10T11:51:18.764Z,1003.04
2018-01-10T11:52:18.769Z,1003.04
2018-01-10T11:53:18.778Z,1003.07
2018-01-10T11:54:18.783Z,1003.04
2018-01-10T11:55:18.789Z,1003.04
2018-01-10T11:56:18.788Z,1003.05
2018-01-10T11:57:18.796Z,1003.11
2018-01-10T11:58:18.803Z,1003.11
2018-01-10T11:59:18.808Z,1003.05
2018-01-10T12:00:18.808Z,1003.06
2018-01-10T12:01:18.818Z,1003.10
2018-01-10T12:02:18.819Z,1003.05
2018-01-10T12:03:18.826Z,1003.03
2018-01-10T12:04:18.829Z,1003.03
2018-01-10T12:05:18.840Z,1003.06
2018-01-10T12:06:18.841Z,1003.07
2018-01-10T12:07:18.853Z,1003.09
2018-01-10T12:08:18.851Z,1003.05